• Join FlightAware (Why Join?)
  • Login
  • US Flag 
06:24PM EST


 

Airport Tracker/Info


-or-


 

Live Flight TrackerFlight Track Log ✈ N53NW ✈ 19-Oct-2013 ✈ KPUB - KSMO

Flight Track Log - Related Links

Times and Time Zones

All times are in EDT time to prevent confusion due to time zone crossing. See the N53NW flight status page for this flight to view local times or setup timezone preferences in your user account.

Time Position Orientation Groundspeed Altitude Reporting Facility
EDT Latitude Longitude Course Direction KTS MPH feet Rate Location/Type
03:37PM 38.2858 -104.6061 273° West 237 273 8,100  Level Denver Center
03:38PM 38.2806 -104.7061 266° West 245 282 11,600 2,820 Climbing Denver Center
03:39PM 38.2694 -104.7978 261° West 260 299 13,900 2,400 Climbing Denver Center
03:40PM 38.2400 -104.9111 252° West 296 341 16,600 2,400 Climbing Denver Center
03:41PM 38.2175 -105.0069 253° West 296 341 18,900 2,040 Climbing Denver Center
03:42PM 38.1942 -105.1042 253° West 300 345 20,900 2,040 Climbing Denver Center
03:43PM 38.1658 -105.2219 253° West 309 356 23,200 2,040 Climbing Denver Center
03:44PM 38.1406 -105.3264 253° West 320 368 25,100 2,040 Climbing Denver Center
03:45PM 38.1103 -105.4503 253° West 329 379 27,400 2,040 Climbing Denver Center
03:46PM 38.0850 -105.5594 254° West 334 384 29,300 1,860 Climbing Denver Center
03:47PM 38.0528 -105.6844 252° West 334 384 31,300 1,560 Climbing Denver Center
03:48PM 38.0272 -105.7953 254° West 340 391 32,600 1,260 Climbing Denver Center
03:49PM 37.9992 -105.9072 252° West 346 398 33,900 840 Climbing Denver Center
03:50PM 37.9636 -106.0478 252° West 372 428 34,400 780 Climbing Denver Center
03:51PM 37.9331 -106.1681 252° West 376 433 35,600 1,260 Climbing Denver Center
03:52PM 37.8989 -106.3075 253° West 372 428 37,000 1,200 Climbing Denver Center
03:53PM 37.8683 -106.4228 251° West 364 419 38,100 1,020 Climbing Denver Center
03:54PM 37.8389 -106.5464 253° West 354 407 39,100 900 Climbing Denver Center
03:55PM 37.8069 -106.6672 252° West 343 395 40,000 420 Climbing Denver Center
03:56PM 37.7781 -106.7789 252° West 349 402 40,000  Level Denver Center
03:57PM 37.7436 -106.9144 252° West 361 415 40,000  Level Denver Center
03:58PM 37.7128 -107.0367 252° West 379 436 40,000  Level Denver Center
03:59PM 37.6769 -107.1756 252° West 375 432 40,000  Level Denver Center
04:00PM 37.6453 -107.2933 251° West 372 428 40,000  Level Denver Center
04:02PM 37.6144 -107.4106 252° West 369 425 40,000  Level Denver Center
04:03PM 37.5783 -107.5481 252° West 370 426 40,000  Level Denver Center
04:04PM 37.5469 -107.6661 251° West 372 428 40,000  Level Denver Center
04:05PM 37.5100 -107.8033 251° West 370 426 40,000  Level Denver Center
04:06PM 37.4781 -107.9219 251° West 371 427 40,000  Level Denver Center
04:07PM 37.4472 -108.0406 252° West 374 430 40,000  Level Denver Center
04:08PM 37.4092 -108.1781 251° West 374 430 40,000  Level Denver Center
04:09PM 37.3778 -108.2944 251° West 370 426 40,000  Level Denver Center
04:10PM 37.3397 -108.4339 251° West 376 433 40,000  Level Denver Center
04:11PM 37.3069 -108.5514 251° West 373 429 40,000  Level Denver Center
04:12PM 37.2697 -108.6892 251° West 373 429 40,000  Level Denver Center
04:13PM 37.2369 -108.8069 251° West 372 428 40,000  Level Denver Center
04:14PM 37.2039 -108.9250 251° West 374 430 40,000  Level Denver Center
04:15PM 37.1653 -109.0653 251° West 380 437 40,000  Level Denver Center
04:16PM 37.1314 -109.1831 250° West 378 435 40,000  Level Denver Center
04:17PM 37.0925 -109.3208 251° West 378 435 40,000  Level Denver Center
04:18PM 37.0592 -109.4389 251° West 377 434 40,000  Level Denver Center
04:19PM 37.0197 -109.5792 251° West 383 441 40,000  Level Denver Center
04:20PM 36.9858 -109.6967 250° West 378 435 40,000  Level Denver Center
04:21PM 36.9519 -109.8147 250° West 378 435 40,000  Level Denver Center
04:22PM 36.9117 -109.9542 250° West 382 440 40,000  Level Denver Center
04:23PM 36.8764 -110.0728 250° West 382 440 40,000  Level Denver Center
04:24PM 36.8406 -110.1978 250° West 392 451 40,000  Level Denver Center
04:25PM 36.8039 -110.3228 250° West 386 444 40,000  Level Denver Center
04:26PM 36.7592 -110.4742 250° West 387 445 40,000  Level Denver Center
04:27PM 36.7222 -110.5992 250° West 385 443 40,000  Level Denver Center
04:28PM 36.6847 -110.7253 250° West 387 445 40,000  Level Denver Center
04:29PM 36.6481 -110.8506 250° West 387 445 40,000  Level Denver Center
04:30PM 36.6086 -110.9794 249° West 392 451 40,000  Level Denver Center
04:31PM 36.5700 -111.1072 249° West 394 453 40,000  Level Denver Center
04:32PM 36.5325 -111.2328 250° West 390 449 40,000  Level Denver Center
04:33PM 36.4856 -111.3833 249° West 389 448 40,000  Level Denver Center
04:34PM 36.4481 -111.5072 249° West 386 444 40,000  Level Denver Center
04:35PM 36.4103 -111.6311 249° West 385 443 40,000  Level Denver Center
04:36PM 36.3725 -111.7536 249° West 382 440 40,000  Level Denver Center
04:37PM 36.3331 -111.8781 249° West 383 441 40,000  Level Los Angeles Center
04:39PM 36.2961 -111.9997 249° West 380 437 40,000  Level Los Angeles Center
04:40PM 36.2500 -112.1478 249° West 382 440 40,000  Level Los Angeles Center
04:41PM 36.2111 -112.2697 248° West 382 440 40,000  Level Los Angeles Center
04:42PM 36.1733 -112.3936 249° West 383 441 40,000  Level Los Angeles Center
04:43PM 36.1342 -112.5144 248° West 380 437 40,000  Level Los Angeles Center
04:44PM 36.0953 -112.6358 248° West 380 437 40,000  Level Los Angeles Center
04:45PM 36.0569 -112.7592 249° West 382 440 40,000  Level Los Angeles Center
04:46PM 36.0181 -112.8797 248° West 381 438 40,000  Level Los Angeles Center
04:47PM 35.9711 -113.0269 249° West 382 440 40,000  Level Los Angeles Center
04:48PM 35.9375 -113.1286 248° West 382 440 40,000  Level Los Angeles Center
04:49PM 35.8906 -113.2733 248° West 383 441 40,000  Level Los Angeles Center
04:50PM 35.8511 -113.3956 248° West 387 445 40,000  Level Los Angeles Center
04:51PM 35.8106 -113.5169 248° West 387 445 40,000 -600 Level Los Angeles Center
04:52PM 35.7714 -113.6392 248° West 387 445 38,800 -1,320 Descending Los Angeles Center
04:53PM 35.7211 -113.7875 247° West 388 447 37,300 -1,200 Descending Los Angeles Center
04:54PM 35.6803 -113.9142 248° West 393 452 36,100 -1,200 Descending Los Angeles Center
04:55PM 35.6314 -114.0597 248° West 396 456 34,700 -1,020 Descending Los Angeles Center
04:56PM 35.5897 -114.1867 248° West 402 463 34,000 -360 Descending Los Angeles Center
04:57PM 35.5442 -114.3189 247° West 400 460 34,000  Level Los Angeles Center
04:58PM 35.5006 -114.4467 247° West 403 464 34,000  Level Los Angeles Center
04:59PM 35.4667 -114.5481 248° West 403 464 34,000  Level Los Angeles Center
05:00PM 35.4064 -114.7267 248° West 404 465 34,000  Level Los Angeles Center
05:01PM 35.3719 -114.8275 247° West 402 463 34,000  Level Los Angeles Center
05:02PM 35.3192 -114.9792 247° West 401 461 34,000 -360 Level Los Angeles Center
05:04PM 35.2761 -115.1047 247° West 401 461 33,300 -1,080 Descending Los Angeles Center
05:05PM 35.2325 -115.2317 247° West 404 465 31,800 -1,260 Descending Los Angeles Center
05:06PM 35.1917 -115.3469 247° West 400 460 30,700 -600 Descending Los Angeles Center
05:08PM 35.0947 -115.6261 247° West 408 470 30,000 -300 Descending Los Angeles Center
05:09PM 35.0503 -115.7536 247° West 408 470 29,800 -780 Descending Los Angeles Center
05:10PM 35.0053 -115.8811 247° West 410 472 28,400 -1,260 Descending Los Angeles Center
05:11PM 34.9608 -116.0053 246° West 402 463 27,200 -1,080 Descending Los Angeles Center
05:12PM 34.9158 -116.1308 246° West 403 464 26,200 -1,260 Descending Los Angeles Center
05:13PM 34.8625 -116.2783 246° West 399 459 24,400 -1,560 Descending Los Angeles Center
05:14PM 34.8119 -116.4219 247° West 389 448 22,700 -1,500 Descending Los Angeles Center
05:15PM 34.7908 -116.5431 258° West 375 432 21,300 -1,320 Descending Los Angeles Center
05:16PM 34.7775 -116.6656 262° West 366 421 20,000 -660 Descending Los Angeles Center
05:17PM 34.7661 -116.7856 263° West 357 411 20,000  Level Los Angeles Center
05:18PM 34.7539 -116.9031 263° West 352 405 20,000  Level Los Angeles Center
05:19PM 34.7386 -117.0461 263° West 354 407 20,000 -240 Level Los Angeles Center
05:20PM 34.7264 -117.1667 263° West 357 411 19,600 -720 Descending Los Angeles Center
05:21PM 34.7142 -117.2864 263° West 357 411 18,600 -900 Descending Los Angeles Center
05:22PM 34.7047 -117.3794 263° West 351 404 17,800 -900 Descending Los Angeles Center
05:23PM 34.6897 -117.5158 262° West 341 392 16,800 -1,020 Descending Los Angeles Center
05:24PM 34.6781 -117.6286 263° West 337 388 15,800 -1,080 Descending Los Angeles Center
05:25PM 34.6664 -117.7414 263° West 335 386 14,600 -1,500 Descending Los Angeles Center
05:26PM 34.6525 -117.8742 263° West 330 380 12,700 -1,260 Descending Los Angeles Center
05:27PM 34.6394 -117.9758 261° West 309 356 12,000 -780 Descending Los Angeles Center
05:29PM 34.5994 -118.0628 241° Southwest 295 339 11,100 -840 Descending Los Angeles Center
05:30PM 34.5589 -118.1525 241° Southwest 278 320 10,300 -1,320 Descending Los Angeles Center
05:31PM 34.5222 -118.2372 242° Southwest 282 325 8,400 -1,140 Descending Los Angeles Center
05:32PM 34.4744 -118.3044 229° Southwest 268 308 8,000 -240 Descending Los Angeles Center
05:33PM 34.4014 -118.3053 181° South 260 299 8,000 -480 Level Los Angeles Center
05:34PM 34.3314 -118.2956 173° South 252 290 7,100 -480 Descending Los Angeles Center
05:35PM 34.2589 -118.2867 174° South 257 296 7,100 -540 Level Los Angeles Center
05:36PM 34.1747 -118.2722 172° South 256 295 6,100 -1,440 Descending Los Angeles Center
05:37PM 34.1228 -118.3142 214° Southwest 240 276 4,200 -1,320 Descending Los Angeles Center
05:38PM 34.0864 -118.3628 228° Southwest 207 238 3,400 -900 Descending Los Angeles Center
05:39PM 34.0633 -118.3972 231° Southwest 153 176 2,400 -1,080 Descending Los Angeles Center
05:40PM 34.0397 -118.4242 223° Southwest 131 151 1,200 -1,080 Descending Los Angeles Center
05:41PM 34.0183 -118.4489 224° Southwest 118 136 200 -1,020 Descending Los Angeles Center
05:43PM 34.0158 -118.4513 244° Southwest  Level Estimated